createdAt,value
2023-04-15T00:00:17.733Z,9.17
2023-04-15T00:05:40.289Z,9.19
2023-04-15T00:11:03.212Z,9.25
2023-04-15T00:16:24.062Z,9.34
2023-04-15T00:21:44.339Z,9.35
2023-04-15T00:27:05.566Z,9.38
2023-04-15T00:32:26.018Z,9.40
2023-04-15T00:37:46.530Z,9.38
2023-04-15T00:43:07.269Z,9.36
2023-04-15T00:48:28.334Z,9.35
2023-04-15T00:53:48.776Z,9.35
2023-04-15T00:59:10.288Z,9.33
2023-04-15T01:04:32.672Z,9.31
2023-04-15T01:09:53.496Z,9.30
2023-04-15T01:15:15.036Z,9.28
2023-04-15T01:20:36.343Z,9.22
2023-04-15T01:25:58.453Z,9.16
2023-04-15T01:31:18.937Z,9.13
2023-04-15T01:36:39.322Z,9.12
2023-04-15T01:42:01.467Z,9.09
2023-04-15T01:47:23.456Z,9.08
2023-04-15T01:52:45.192Z,9.10
2023-04-15T01:58:07.526Z,9.09
2023-04-15T02:03:29.592Z,9.09
2023-04-15T02:08:51.659Z,9.09
2023-04-15T02:14:13.263Z,9.11
2023-04-15T02:19:36.022Z,9.07
2023-04-15T02:24:58.765Z,9.06
2023-04-15T02:30:21.345Z,9.00
2023-04-15T02:35:45.508Z,8.95
2023-04-15T02:41:07.212Z,8.95
2023-04-15T02:46:30.696Z,8.90
2023-04-15T02:51:52.653Z,8.88
2023-04-15T02:57:15.992Z,8.83
2023-04-15T03:02:38.976Z,8.82
2023-04-15T03:08:01.394Z,8.82
2023-04-15T03:13:24.496Z,8.81
2023-04-15T03:18:46.394Z,8.80
2023-04-15T03:24:09.620Z,8.78
2023-04-15T03:29:31.672Z,8.74
2023-04-15T03:34:54.485Z,8.78
2023-04-15T03:40:21.673Z,8.79
2023-04-15T03:45:43.237Z,8.81
2023-04-15T03:51:05.214Z,8.82
2023-04-15T03:56:26.990Z,8.77
2023-04-15T04:01:49.483Z,8.70
2023-04-15T04:07:18.434Z,8.70
2023-04-15T04:12:40.175Z,8.66
2023-04-15T04:18:02.135Z,8.64
2023-04-15T04:23:24.371Z,8.62
2023-04-15T04:28:46.041Z,8.65
2023-04-15T04:34:07.848Z,8.61
2023-04-15T04:39:29.499Z,8.68
2023-04-15T04:44:51.568Z,8.69
2023-04-15T04:50:14.410Z,8.68
2023-04-15T04:55:39.011Z,8.70
2023-04-15T05:01:00.838Z,8.71
2023-04-15T05:06:22.626Z,8.73
2023-04-15T05:11:44.625Z,8.73
2023-04-15T05:17:06.652Z,8.79
2023-04-15T05:22:28.437Z,8.78
2023-04-15T05:27:50.628Z,8.78
2023-04-15T05:33:12.463Z,8.80
2023-04-15T05:38:34.579Z,8.76
2023-04-15T05:43:56.709Z,8.73
2023-04-15T05:49:18.419Z,8.70
2023-04-15T05:54:40.400Z,8.67
2023-04-15T06:00:02.232Z,8.68
2023-04-15T06:05:31.545Z,8.71
2023-04-15T06:10:53.508Z,8.74
2023-04-15T06:16:15.455Z,8.76
2023-04-15T06:21:37.486Z,8.79
2023-04-15T06:26:59.257Z,8.81
2023-04-15T06:32:21.404Z,8.83
2023-04-15T06:37:43.648Z,8.81
2023-04-15T06:43:05.476Z,8.80
2023-04-15T06:48:27.564Z,8.80
2023-04-15T06:53:49.462Z,8.83
2023-04-15T06:59:11.045Z,8.84
2023-04-15T07:04:32.854Z,8.78
2023-04-15T07:09:54.714Z,8.78
2023-04-15T07:15:19.978Z,8.76
2023-04-15T07:20:41.923Z,8.72
2023-04-15T07:26:04.042Z,8.68
2023-04-15T07:31:26.432Z,8.63
2023-04-15T07:36:51.928Z,8.65
2023-04-15T07:42:14.059Z,8.67
2023-04-15T07:47:35.720Z,8.70
2023-04-15T07:52:57.673Z,8.77
2023-04-15T07:58:19.264Z,8.93
2023-04-15T08:03:41.382Z,8.98
2023-04-15T08:09:03.881Z,8.88
2023-04-15T08:14:25.915Z,8.90
2023-04-15T08:19:48.341Z,8.93
2023-04-15T08:25:10.451Z,9.03
2023-04-15T08:30:32.396Z,9.03
2023-04-15T08:35:54.518Z,8.97
2023-04-15T08:41:23.771Z,8.96
2023-04-15T08:46:46.179Z,9.04
2023-04-15T08:52:09.360Z,9.05
2023-04-15T08:57:32.083Z,9.05
2023-04-15T09:02:55.587Z,9.07
2023-04-15T09:08:17.723Z,9.13
2023-04-15T09:13:39.942Z,9.17
2023-04-15T09:19:21.560Z,9.21
2023-04-15T09:24:43.553Z,9.23
2023-04-15T09:30:08.824Z,9.33
2023-04-15T09:35:30.900Z,9.36
2023-04-15T09:40:53.056Z,9.44
2023-04-15T09:46:14.737Z,9.78
2023-04-15T09:51:36.588Z,9.86
2023-04-15T09:57:08.978Z,9.86
2023-04-15T10:02:32.110Z,9.81
2023-04-15T10:07:54.359Z,9.62
2023-04-15T10:13:20.480Z,9.88
2023-04-15T10:18:45.869Z,9.63
2023-04-15T10:24:08.564Z,9.65
2023-04-15T10:29:30.654Z,9.58
2023-04-15T10:34:54.664Z,9.60
2023-04-15T10:40:27.306Z,9.58
2023-04-15T10:45:49.007Z,9.59
2023-04-15T10:51:13.977Z,9.62
2023-04-15T10:56:36.293Z,9.68
2023-04-15T11:02:03.140Z,9.65
2023-04-15T11:07:35.216Z,9.71
2023-04-15T11:12:59.470Z,9.74
2023-04-15T11:18:26.579Z,9.85
2023-04-15T11:23:48.038Z,10.20
2023-04-15T11:29:18.011Z,10.27
2023-04-15T11:34:39.809Z,10.39
2023-04-15T11:40:03.752Z,10.46
2023-04-15T11:45:25.699Z,10.60
2023-04-15T11:50:53.754Z,10.75
2023-04-15T11:56:22.903Z,10.91
2023-04-15T12:01:44.096Z,11.20
2023-04-15T12:07:06.823Z,11.37
2023-04-15T12:12:30.851Z,11.52
2023-04-15T12:17:55.061Z,11.67
2023-04-15T12:23:19.736Z,11.72
2023-04-15T12:28:41.529Z,11.85
2023-04-15T12:34:03.477Z,11.91
2023-04-15T12:39:30.701Z,12.12
2023-04-15T12:44:51.653Z,12.21
2023-04-15T12:58:11.656Z,13.10
2023-04-15T13:03:32.437Z,14.75
2023-04-15T13:08:58.412Z,16.78
2023-04-15T13:14:19.292Z,17.81
2023-04-15T13:19:39.950Z,20.63
2023-04-15T13:25:00.479Z,21.47
2023-04-15T13:30:20.883Z,19.46
2023-04-15T13:35:41.528Z,19.20
2023-04-15T13:41:02.021Z,20.78
2023-04-15T13:46:22.404Z,22.69
2023-04-15T13:51:42.710Z,24.93
2023-04-15T13:57:03.435Z,27.45
2023-04-15T14:02:24.316Z,29.80
2023-04-15T14:07:44.985Z,31.17
2023-04-15T14:13:06.231Z,30.96
2023-04-15T14:18:27.328Z,28.01
2023-04-15T14:23:48.287Z,27.22
2023-04-15T14:29:08.782Z,26.03
2023-04-15T14:34:29.502Z,27.51
2023-04-15T14:39:50.479Z,28.38
2023-04-15T14:45:11.228Z,29.09
2023-04-15T14:50:31.879Z,29.59
2023-04-15T14:55:52.645Z,29.39
2023-04-15T15:01:13.074Z,29.18
2023-04-15T15:06:34.472Z,28.70
2023-04-15T15:11:54.862Z,27.40
2023-04-15T15:17:15.403Z,25.08
2023-04-15T15:22:36.051Z,24.01
2023-04-15T15:27:57.750Z,23.38
2023-04-15T15:33:18.213Z,22.53
2023-04-15T15:38:40.570Z,21.80
2023-04-15T15:44:01.103Z,20.84
2023-04-15T15:49:21.510Z,20.06
2023-04-15T15:54:42.260Z,19.47
2023-04-15T16:05:26.960Z,18.40
2023-04-15T16:10:47.835Z,17.82
2023-04-15T16:16:08.332Z,17.50
2023-04-15T16:21:28.938Z,17.17
2023-04-15T16:26:49.895Z,16.79
2023-04-15T16:32:11.081Z,16.65
2023-04-15T16:37:33.103Z,16.39
2023-04-15T16:42:54.028Z,16.17
2023-04-15T16:48:14.359Z,15.89
2023-04-15T16:53:34.889Z,15.72
2023-04-15T16:58:55.822Z,15.59
2023-04-15T17:04:16.480Z,15.69
2023-04-15T17:09:39.177Z,15.79
2023-04-15T17:15:05.761Z,15.88
2023-04-15T17:20:26.660Z,15.82
2023-04-15T17:25:47.777Z,15.76
2023-04-15T17:31:08.837Z,15.69
2023-04-15T17:36:51.305Z,15.55
2023-04-15T17:42:31.789Z,15.52
2023-04-15T17:48:13.243Z,15.38
2023-04-15T17:53:53.805Z,15.32
2023-04-15T17:59:35.069Z,15.26
2023-04-15T18:05:16.153Z,15.00
2023-04-15T18:10:56.759Z,15.10
2023-04-15T18:16:37.092Z,15.09
2023-04-15T18:22:17.949Z,14.93
2023-04-15T18:27:41.586Z,14.62
2023-04-15T18:33:02.549Z,14.50
2023-04-15T18:38:23.786Z,14.39
2023-04-15T18:43:44.375Z,14.38
2023-04-15T18:49:05.032Z,14.31
2023-04-15T18:54:25.568Z,14.23
2023-04-15T18:59:46.472Z,14.14
2023-04-15T19:05:07.185Z,14.10
2023-04-15T19:10:30.525Z,14.17
2023-04-15T19:15:51.803Z,14.08
2023-04-15T19:21:12.994Z,14.12
2023-04-15T19:26:33.752Z,14.02
2023-04-15T19:31:55.018Z,13.98
2023-04-15T19:37:16.100Z,13.82
2023-04-15T19:42:36.762Z,13.69
2023-04-15T19:47:57.930Z,13.63
2023-04-15T19:53:18.029Z,13.62
2023-04-15T19:58:38.730Z,13.61
2023-04-15T20:03:59.655Z,13.63
2023-04-15T20:09:20.386Z,13.61
2023-04-15T20:14:41.501Z,13.54
2023-04-15T20:20:03.955Z,13.52
2023-04-15T20:25:24.561Z,13.51
2023-04-15T20:30:45.862Z,13.38
2023-04-15T20:36:06.972Z,13.38
2023-04-15T20:41:28.028Z,13.40
2023-04-15T20:46:48.499Z,13.35
2023-04-15T20:52:09.930Z,13.28
2023-04-15T20:57:30.402Z,13.21
2023-04-15T21:02:52.834Z,13.20
2023-04-15T21:08:51.126Z,13.16
2023-04-15T21:14:27.734Z,13.10
2023-04-15T21:20:07.895Z,13.05
2023-04-15T21:25:31.208Z,12.96
2023-04-15T21:30:54.045Z,12.91
2023-04-15T21:36:15.159Z,12.80
2023-04-15T21:41:36.981Z,12.76
2023-04-15T21:46:57.528Z,12.62
2023-04-15T21:52:18.200Z,12.55
2023-04-15T21:57:38.744Z,12.54
2023-04-15T22:03:02.767Z,12.52
2023-04-15T22:08:24.158Z,12.51
2023-04-15T22:13:45.401Z,12.50
2023-04-15T22:19:06.384Z,12.47
2023-04-15T22:24:38.053Z,12.45
2023-04-15T22:30:01.222Z,12.39
2023-04-15T22:35:21.973Z,12.30
2023-04-15T22:40:42.707Z,12.22
2023-04-15T22:46:03.150Z,12.19
2023-04-15T22:51:26.804Z,12.15
2023-04-15T22:56:47.320Z,12.12
2023-04-15T23:02:07.982Z,12.15
2023-04-15T23:07:29.127Z,12.18
2023-04-15T23:12:49.526Z,12.16
2023-04-15T23:18:10.435Z,12.08
2023-04-15T23:23:31.200Z,11.98
2023-04-15T23:28:51.863Z,11.93
2023-04-15T23:34:12.475Z,11.90
2023-04-15T23:39:33.082Z,11.87
2023-04-15T23:44:53.408Z,11.83
2023-04-15T23:50:15.250Z,11.80
2023-04-15T23:55:36.220Z,11.79
